Terminal Aerodrome Forecast
Issued by NWS Louisville, KY

Home | Current Version | Previous Version | Text Only | Print | Product List | Glossary On
Versions: 1 2 3 4 5 6 7 8 9 10 11 12 13 14 15 16 17 18 19 20 21
000
FTUS43 KLMK 260531
TAFBWG
TAF
KBWG 260531Z 2606/2706 00000KT 6SM BR SCT100 SCT250
     FM260800 00000KT 5SM BR SCT250
      TEMPO 2610/2613 2SM BR
     FM261300 22006KT P6SM SCT050
     FM270000 VRB03KT P6SM SCT250=

USA.gov is the U.S. government's official web portal to all federal, state and local government web resources and services.